sensor_id;sensor_type;location;lat;lon;timestamp;P1;durP1;ratioP1;P2;durP2;ratioP2
6947;SDS011;3513;47.664;9.162;2023-07-22T00:00:25;14.37;;;3.77;;
6947;SDS011;3513;47.664;9.162;2023-07-22T00:02:51;7.33;;;3.10;;
6947;SDS011;3513;47.664;9.162;2023-07-22T00:05:17;5.80;;;3.37;;
6947;SDS011;3513;47.664;9.162;2023-07-22T00:07:48;7.13;;;3.37;;
6947;SDS011;3513;47.664;9.162;2023-07-22T00:10:16;3.37;;;2.80;;
6947;SDS011;3513;47.664;9.162;2023-07-22T00:12:42;4.57;;;3.17;;
6947;SDS011;3513;47.664;9.162;2023-07-22T00:15:07;6.40;;;3.40;;
6947;SDS011;3513;47.664;9.162;2023-07-22T00:17:36;15.83;;;3.90;;
6947;SDS011;3513;47.664;9.162;2023-07-22T00:20:03;4.53;;;3.20;;
6947;SDS011;3513;47.664;9.162;2023-07-22T00:22:29;5.00;;;3.30;;
6947;SDS011;3513;47.664;9.162;2023-07-22T00:24:55;5.83;;;3.43;;
6947;SDS011;3513;47.664;9.162;2023-07-22T00:27:20;5.20;;;2.73;;
6947;SDS011;3513;47.664;9.162;2023-07-22T00:29:46;5.00;;;3.03;;
6947;SDS011;3513;47.664;9.162;2023-07-22T00:32:11;10.87;;;3.07;;
6947;SDS011;3513;47.664;9.162;2023-07-22T00:34:38;4.50;;;3.70;;
6947;SDS011;3513;47.664;9.162;2023-07-22T00:37:04;6.07;;;3.47;;
6947;SDS011;3513;47.664;9.162;2023-07-22T00:39:30;5.40;;;3.73;;
6947;SDS011;3513;47.664;9.162;2023-07-22T00:41:55;5.80;;;3.13;;
6947;SDS011;3513;47.664;9.162;2023-07-22T00:44:21;6.27;;;3.20;;
6947;SDS011;3513;47.664;9.162;2023-07-22T00:46:46;5.40;;;3.30;;
6947;SDS011;3513;47.664;9.162;2023-07-22T00:49:12;4.10;;;3.00;;
6947;SDS011;3513;47.664;9.162;2023-07-22T00:51:40;5.30;;;3.30;;
6947;SDS011;3513;47.664;9.162;2023-07-22T00:54:06;5.10;;;3.27;;
6947;SDS011;3513;47.664;9.162;2023-07-22T00:56:33;4.20;;;2.77;;
6947;SDS011;3513;47.664;9.162;2023-07-22T00:59:01;5.40;;;3.10;;
6947;SDS011;3513;47.664;9.162;2023-07-22T01:01:27;3.83;;;3.00;;
6947;SDS011;3513;47.664;9.162;2023-07-22T01:03:53;8.70;;;3.80;;
6947;SDS011;3513;47.664;9.162;2023-07-22T01:06:19;4.63;;;3.63;;
6947;SDS011;3513;47.664;9.162;2023-07-22T01:08:45;9.30;;;3.67;;
6947;SDS011;3513;47.664;9.162;2023-07-22T01:11:11;7.00;;;3.17;;
6947;SDS011;3513;47.664;9.162;2023-07-22T01:13:38;3.33;;;2.70;;
6947;SDS011;3513;47.664;9.162;2023-07-22T01:16:04;8.37;;;4.27;;
6947;SDS011;3513;47.664;9.162;2023-07-22T01:18:31;6.07;;;3.87;;
6947;SDS011;3513;47.664;9.162;2023-07-22T01:20:58;6.90;;;3.80;;
6947;SDS011;3513;47.664;9.162;2023-07-22T01:23:24;4.10;;;3.43;;
6947;SDS011;3513;47.664;9.162;2023-07-22T01:25:50;4.20;;;3.40;;
6947;SDS011;3513;47.664;9.162;2023-07-22T01:28:16;5.93;;;4.57;;
6947;SDS011;3513;47.664;9.162;2023-07-22T01:30:42;3.40;;;3.10;;
6947;SDS011;3513;47.664;9.162;2023-07-22T01:33:07;9.27;;;3.67;;
6947;SDS011;3513;47.664;9.162;2023-07-22T01:35:33;4.13;;;3.43;;
6947;SDS011;3513;47.664;9.162;2023-07-22T01:37:58;4.33;;;3.03;;
6947;SDS011;3513;47.664;9.162;2023-07-22T01:40:25;7.47;;;3.73;;
6947;SDS011;3513;47.664;9.162;2023-07-22T01:42:50;10.70;;;4.63;;
6947;SDS011;3513;47.664;9.162;2023-07-22T01:45:16;4.37;;;3.50;;
6947;SDS011;3513;47.664;9.162;2023-07-22T01:47:42;10.67;;;3.87;;
6947;SDS011;3513;47.664;9.162;2023-07-22T01:50:07;11.00;;;4.07;;
6947;SDS011;3513;47.664;9.162;2023-07-22T01:52:34;5.93;;;3.13;;
6947;SDS011;3513;47.664;9.162;2023-07-22T01:57:48;8.40;;;3.80;;
6947;SDS011;3513;47.664;9.162;2023-07-22T02:00:13;6.00;;;3.40;;
6947;SDS011;3513;47.664;9.162;2023-07-22T02:02:40;3.77;;;3.13;;
6947;SDS011;3513;47.664;9.162;2023-07-22T02:05:08;4.57;;;3.63;;
6947;SDS011;3513;47.664;9.162;2023-07-22T02:07:35;5.77;;;3.43;;
6947;SDS011;3513;47.664;9.162;2023-07-22T02:10:01;10.10;;;3.83;;
6947;SDS011;3513;47.664;9.162;2023-07-22T02:12:26;11.00;;;3.43;;
6947;SDS011;3513;47.664;9.162;2023-07-22T02:14:52;4.80;;;3.37;;
6947;SDS011;3513;47.664;9.162;2023-07-22T02:17:17;5.60;;;3.37;;
6947;SDS011;3513;47.664;9.162;2023-07-22T02:19:43;5.40;;;3.83;;
6947;SDS011;3513;47.664;9.162;2023-07-22T02:22:09;4.93;;;2.90;;
6947;SDS011;3513;47.664;9.162;2023-07-22T02:24:34;7.60;;;3.30;;
6947;SDS011;3513;47.664;9.162;2023-07-22T02:27:00;9.83;;;3.37;;
6947;SDS011;3513;47.664;9.162;2023-07-22T02:29:25;3.77;;;3.10;;
6947;SDS011;3513;47.664;9.162;2023-07-22T02:31:51;5.20;;;3.90;;
6947;SDS011;3513;47.664;9.162;2023-07-22T02:34:16;5.17;;;3.73;;
6947;SDS011;3513;47.664;9.162;2023-07-22T02:36:42;8.27;;;3.43;;
6947;SDS011;3513;47.664;9.162;2023-07-22T02:39:08;6.70;;;3.73;;
6947;SDS011;3513;47.664;9.162;2023-07-22T02:41:36;7.60;;;4.27;;
6947;SDS011;3513;47.664;9.162;2023-07-22T02:44:02;4.17;;;3.57;;
6947;SDS011;3513;47.664;9.162;2023-07-22T02:46:28;5.47;;;3.70;;
6947;SDS011;3513;47.664;9.162;2023-07-22T02:48:54;7.10;;;3.70;;
6947;SDS011;3513;47.664;9.162;2023-07-22T02:51:20;7.00;;;4.03;;
6947;SDS011;3513;47.664;9.162;2023-07-22T02:53:46;6.80;;;4.47;;
6947;SDS011;3513;47.664;9.162;2023-07-22T02:56:12;4.20;;;3.47;;
6947;SDS011;3513;47.664;9.162;2023-07-22T02:58:38;7.83;;;4.00;;
6947;SDS011;3513;47.664;9.162;2023-07-22T03:01:04;7.53;;;3.90;;
6947;SDS011;3513;47.664;9.162;2023-07-22T03:03:33;13.30;;;3.77;;
6947;SDS011;3513;47.664;9.162;2023-07-22T03:05:59;5.40;;;3.80;;
6947;SDS011;3513;47.664;9.162;2023-07-22T03:08:25;4.07;;;3.30;;
6947;SDS011;3513;47.664;9.162;2023-07-22T03:10:51;5.67;;;4.37;;
6947;SDS011;3513;47.664;9.162;2023-07-22T03:13:17;13.90;;;4.40;;
6947;SDS011;3513;47.664;9.162;2023-07-22T03:15:43;6.07;;;4.10;;
6947;SDS011;3513;47.664;9.162;2023-07-22T03:18:09;6.77;;;4.33;;
6947;SDS011;3513;47.664;9.162;2023-07-22T03:20:35;6.33;;;3.40;;
6947;SDS011;3513;47.664;9.162;2023-07-22T03:23:02;5.40;;;3.70;;
6947;SDS011;3513;47.664;9.162;2023-07-22T03:25:28;5.67;;;3.70;;
6947;SDS011;3513;47.664;9.162;2023-07-22T03:27:53;8.30;;;3.53;;
6947;SDS011;3513;47.664;9.162;2023-07-22T03:30:21;6.23;;;3.80;;
6947;SDS011;3513;47.664;9.162;2023-07-22T03:32:48;9.80;;;4.50;;
6947;SDS011;3513;47.664;9.162;2023-07-22T03:35:15;6.60;;;3.83;;
6947;SDS011;3513;47.664;9.162;2023-07-22T03:37:41;5.97;;;4.50;;
6947;SDS011;3513;47.664;9.162;2023-07-22T03:40:08;6.03;;;3.87;;
6947;SDS011;3513;47.664;9.162;2023-07-22T03:42:52;11.03;;;4.60;;
6947;SDS011;3513;47.664;9.162;2023-07-22T03:45:19;5.70;;;4.30;;
6947;SDS011;3513;47.664;9.162;2023-07-22T03:47:46;8.50;;;4.60;;
6947;SDS011;3513;47.664;9.162;2023-07-22T03:50:15;6.00;;;3.90;;
6947;SDS011;3513;47.664;9.162;2023-07-22T03:52:41;5.80;;;4.60;;
6947;SDS011;3513;47.664;9.162;2023-07-22T03:55:06;13.00;;;4.13;;
6947;SDS011;3513;47.664;9.162;2023-07-22T03:57:32;7.70;;;5.00;;
6947;SDS011;3513;47.664;9.162;2023-07-22T03:59:58;11.37;;;4.93;;
6947;SDS011;3513;47.664;9.162;2023-07-22T04:02:24;7.03;;;4.20;;
6947;SDS011;3513;47.664;9.162;2023-07-22T04:04:50;5.10;;;3.97;;
6947;SDS011;3513;47.664;9.162;2023-07-22T04:07:16;10.43;;;4.30;;
6947;SDS011;3513;47.664;9.162;2023-07-22T04:09:43;7.97;;;4.20;;
6947;SDS011;3513;47.664;9.162;2023-07-22T04:12:10;13.53;;;4.60;;
6947;SDS011;3513;47.664;9.162;2023-07-22T04:14:35;7.10;;;4.00;;
6947;SDS011;3513;47.664;9.162;2023-07-22T04:17:02;7.43;;;4.90;;
6947;SDS011;3513;47.664;9.162;2023-07-22T04:19:29;8.77;;;4.77;;
6947;SDS011;3513;47.664;9.162;2023-07-22T04:21:55;5.27;;;4.23;;
6947;SDS011;3513;47.664;9.162;2023-07-22T04:24:20;8.60;;;5.23;;
6947;SDS011;3513;47.664;9.162;2023-07-22T04:26:46;11.80;;;4.90;;
6947;SDS011;3513;47.664;9.162;2023-07-22T04:29:11;11.90;;;4.57;;
6947;SDS011;3513;47.664;9.162;2023-07-22T04:31:37;10.13;;;4.37;;
6947;SDS011;3513;47.664;9.162;2023-07-22T04:34:03;8.97;;;4.20;;
6947;SDS011;3513;47.664;9.162;2023-07-22T04:36:30;9.70;;;4.87;;
6947;SDS011;3513;47.664;9.162;2023-07-22T04:38:56;8.07;;;4.70;;
6947;SDS011;3513;47.664;9.162;2023-07-22T04:41:21;8.10;;;4.80;;
6947;SDS011;3513;47.664;9.162;2023-07-22T04:43:47;8.03;;;4.73;;
6947;SDS011;3513;47.664;9.162;2023-07-22T04:46:13;9.23;;;4.20;;
6947;SDS011;3513;47.664;9.162;2023-07-22T04:48:38;10.20;;;4.93;;
6947;SDS011;3513;47.664;9.162;2023-07-22T04:51:04;9.90;;;5.20;;
6947;SDS011;3513;47.664;9.162;2023-07-22T04:53:29;6.47;;;4.10;;
6947;SDS011;3513;47.664;9.162;2023-07-22T04:55:55;7.27;;;4.50;;
6947;SDS011;3513;47.664;9.162;2023-07-22T04:58:21;10.13;;;4.87;;
6947;SDS011;3513;47.664;9.162;2023-07-22T05:00:46;7.80;;;4.20;;
6947;SDS011;3513;47.664;9.162;2023-07-22T05:03:13;7.17;;;4.47;;
6947;SDS011;3513;47.664;9.162;2023-07-22T05:05:39;11.63;;;4.40;;
6947;SDS011;3513;47.664;9.162;2023-07-22T05:08:05;9.23;;;4.80;;
6947;SDS011;3513;47.664;9.162;2023-07-22T05:10:32;7.73;;;5.27;;
6947;SDS011;3513;47.664;9.162;2023-07-22T05:12:57;12.40;;;3.70;;
6947;SDS011;3513;47.664;9.162;2023-07-22T05:15:23;6.73;;;4.30;;
6947;SDS011;3513;47.664;9.162;2023-07-22T05:17:49;9.50;;;4.50;;
6947;SDS011;3513;47.664;9.162;2023-07-22T05:20:15;8.57;;;4.40;;
6947;SDS011;3513;47.664;9.162;2023-07-22T05:22:40;7.00;;;4.60;;
6947;SDS011;3513;47.664;9.162;2023-07-22T05:25:07;10.07;;;4.83;;
6947;SDS011;3513;47.664;9.162;2023-07-22T05:27:33;7.00;;;3.93;;
6947;SDS011;3513;47.664;9.162;2023-07-22T05:29:58;7.50;;;4.03;;
6947;SDS011;3513;47.664;9.162;2023-07-22T05:32:24;5.43;;;4.73;;
6947;SDS011;3513;47.664;9.162;2023-07-22T05:34:50;8.30;;;4.13;;
6947;SDS011;3513;47.664;9.162;2023-07-22T05:37:16;8.23;;;4.07;;
6947;SDS011;3513;47.664;9.162;2023-07-22T05:39:41;10.40;;;3.97;;
6947;SDS011;3513;47.664;9.162;2023-07-22T05:42:07;26.87;;;4.70;;
6947;SDS011;3513;47.664;9.162;2023-07-22T05:44:32;5.00;;;4.10;;
6947;SDS011;3513;47.664;9.162;2023-07-22T05:46:58;8.63;;;3.80;;
6947;SDS011;3513;47.664;9.162;2023-07-22T05:49:23;7.33;;;4.20;;
6947;SDS011;3513;47.664;9.162;2023-07-22T05:51:49;15.30;;;5.00;;
6947;SDS011;3513;47.664;9.162;2023-07-22T05:54:15;9.37;;;4.23;;
6947;SDS011;3513;47.664;9.162;2023-07-22T05:56:41;7.47;;;4.63;;
6947;SDS011;3513;47.664;9.162;2023-07-22T05:59:06;6.10;;;3.93;;
6947;SDS011;3513;47.664;9.162;2023-07-22T06:01:32;10.03;;;5.00;;
6947;SDS011;3513;47.664;9.162;2023-07-22T06:03:58;5.50;;;3.63;;
6947;SDS011;3513;47.664;9.162;2023-07-22T06:06:23;6.30;;;4.53;;
6947;SDS011;3513;47.664;9.162;2023-07-22T06:08:49;9.77;;;4.07;;
6947;SDS011;3513;47.664;9.162;2023-07-22T06:11:14;7.97;;;4.33;;
6947;SDS011;3513;47.664;9.162;2023-07-22T06:13:40;11.33;;;4.80;;
6947;SDS011;3513;47.664;9.162;2023-07-22T06:16:06;6.93;;;4.77;;
6947;SDS011;3513;47.664;9.162;2023-07-22T06:18:31;6.73;;;3.83;;
6947;SDS011;3513;47.664;9.162;2023-07-22T06:20:57;10.00;;;5.40;;
6947;SDS011;3513;47.664;9.162;2023-07-22T06:23:22;5.40;;;4.13;;
6947;SDS011;3513;47.664;9.162;2023-07-22T06:25:48;5.40;;;4.20;;
6947;SDS011;3513;47.664;9.162;2023-07-22T06:28:14;8.60;;;5.00;;
6947;SDS011;3513;47.664;9.162;2023-07-22T06:30:39;7.07;;;4.30;;
6947;SDS011;3513;47.664;9.162;2023-07-22T06:33:05;7.07;;;4.50;;
6947;SDS011;3513;47.664;9.162;2023-07-22T06:35:30;18.53;;;5.70;;
6947;SDS011;3513;47.664;9.162;2023-07-22T06:37:56;8.40;;;4.30;;
6947;SDS011;3513;47.664;9.162;2023-07-22T06:40:21;13.40;;;4.70;;
6947;SDS011;3513;47.664;9.162;2023-07-22T06:42:47;7.30;;;4.50;;
6947;SDS011;3513;47.664;9.162;2023-07-22T06:45:12;6.57;;;4.60;;
6947;SDS011;3513;47.664;9.162;2023-07-22T06:47:38;12.50;;;5.23;;
6947;SDS011;3513;47.664;9.162;2023-07-22T06:50:04;14.33;;;4.77;;
6947;SDS011;3513;47.664;9.162;2023-07-22T06:52:33;6.40;;;4.23;;
6947;SDS011;3513;47.664;9.162;2023-07-22T06:54:58;8.00;;;4.90;;
6947;SDS011;3513;47.664;9.162;2023-07-22T06:57:24;13.00;;;4.40;;
6947;SDS011;3513;47.664;9.162;2023-07-22T06:59:53;9.23;;;4.20;;
6947;SDS011;3513;47.664;9.162;2023-07-22T07:02:19;10.30;;;4.60;;
6947;SDS011;3513;47.664;9.162;2023-07-22T07:04:45;11.37;;;4.27;;
6947;SDS011;3513;47.664;9.162;2023-07-22T07:07:11;6.83;;;4.20;;
6947;SDS011;3513;47.664;9.162;2023-07-22T07:09:37;9.53;;;4.80;;
6947;SDS011;3513;47.664;9.162;2023-07-22T07:12:03;7.23;;;5.10;;
6947;SDS011;3513;47.664;9.162;2023-07-22T07:14:29;6.87;;;4.27;;
6947;SDS011;3513;47.664;9.162;2023-07-22T07:16:55;6.50;;;4.27;;
6947;SDS011;3513;47.664;9.162;2023-07-22T07:19:20;8.00;;;5.03;;
6947;SDS011;3513;47.664;9.162;2023-07-22T07:21:46;7.43;;;4.40;;
6947;SDS011;3513;47.664;9.162;2023-07-22T07:24:12;7.73;;;4.20;;
6947;SDS011;3513;47.664;9.162;2023-07-22T07:26:37;7.50;;;3.90;;
6947;SDS011;3513;47.664;9.162;2023-07-22T07:29:03;6.33;;;4.40;;
6947;SDS011;3513;47.664;9.162;2023-07-22T07:31:29;5.63;;;3.80;;
6947;SDS011;3513;47.664;9.162;2023-07-22T07:33:54;10.10;;;5.50;;
6947;SDS011;3513;47.664;9.162;2023-07-22T07:36:20;7.80;;;4.20;;
6947;SDS011;3513;47.664;9.162;2023-07-22T07:38:46;8.87;;;4.30;;
6947;SDS011;3513;47.664;9.162;2023-07-22T07:41:12;6.43;;;3.80;;
6947;SDS011;3513;47.664;9.162;2023-07-22T07:43:38;5.10;;;3.20;;
6947;SDS011;3513;47.664;9.162;2023-07-22T07:48:47;6.53;;;4.20;;
6947;SDS011;3513;47.664;9.162;2023-07-22T07:51:14;7.10;;;3.60;;
6947;SDS011;3513;47.664;9.162;2023-07-22T07:53:41;5.30;;;4.27;;
6947;SDS011;3513;47.664;9.162;2023-07-22T07:56:09;5.93;;;3.67;;
6947;SDS011;3513;47.664;9.162;2023-07-22T07:58:36;6.13;;;3.50;;
6947;SDS011;3513;47.664;9.162;2023-07-22T08:01:02;8.60;;;4.50;;
6947;SDS011;3513;47.664;9.162;2023-07-22T08:03:28;9.60;;;3.20;;
6947;SDS011;3513;47.664;9.162;2023-07-22T08:05:54;5.87;;;3.73;;
6947;SDS011;3513;47.664;9.162;2023-07-22T08:08:20;8.13;;;4.37;;
6947;SDS011;3513;47.664;9.162;2023-07-22T08:10:46;5.60;;;3.87;;
6947;SDS011;3513;47.664;9.162;2023-07-22T08:13:13;6.23;;;3.70;;
6947;SDS011;3513;47.664;9.162;2023-07-22T08:15:39;11.30;;;3.83;;
6947;SDS011;3513;47.664;9.162;2023-07-22T08:18:06;4.93;;;3.17;;
6947;SDS011;3513;47.664;9.162;2023-07-22T08:20:32;3.77;;;3.33;;
6947;SDS011;3513;47.664;9.162;2023-07-22T08:22:58;8.63;;;4.00;;
6947;SDS011;3513;47.664;9.162;2023-07-22T08:25:23;6.27;;;3.97;;
6947;SDS011;3513;47.664;9.162;2023-07-22T08:27:49;17.47;;;4.53;;
6947;SDS011;3513;47.664;9.162;2023-07-22T08:30:14;9.77;;;4.40;;
6947;SDS011;3513;47.664;9.162;2023-07-22T08:32:40;10.73;;;4.57;;
6947;SDS011;3513;47.664;9.162;2023-07-22T08:35:05;3.50;;;2.97;;
6947;SDS011;3513;47.664;9.162;2023-07-22T08:37:32;14.03;;;4.07;;
6947;SDS011;3513;47.664;9.162;2023-07-22T08:39:57;5.70;;;3.53;;
6947;SDS011;3513;47.664;9.162;2023-07-22T08:42:23;10.27;;;3.23;;
6947;SDS011;3513;47.664;9.162;2023-07-22T08:44:50;5.87;;;2.53;;
6947;SDS011;3513;47.664;9.162;2023-07-22T08:47:21;5.27;;;2.43;;
6947;SDS011;3513;47.664;9.162;2023-07-22T08:49:51;4.13;;;2.50;;
6947;SDS011;3513;47.664;9.162;2023-07-22T08:52:18;4.70;;;3.07;;
6947;SDS011;3513;47.664;9.162;2023-07-22T08:54:44;3.00;;;2.07;;
6947;SDS011;3513;47.664;9.162;2023-07-22T08:57:11;3.40;;;2.00;;
6947;SDS011;3513;47.664;9.162;2023-07-22T08:59:37;4.73;;;2.40;;
6947;SDS011;3513;47.664;9.162;2023-07-22T09:02:03;4.60;;;2.17;;
6947;SDS011;3513;47.664;9.162;2023-07-22T09:04:30;4.33;;;2.47;;
6947;SDS011;3513;47.664;9.162;2023-07-22T09:06:56;2.03;;;1.87;;
6947;SDS011;3513;47.664;9.162;2023-07-22T09:09:22;2.10;;;1.90;;
6947;SDS011;3513;47.664;9.162;2023-07-22T09:11:50;2.40;;;2.10;;
6947;SDS011;3513;47.664;9.162;2023-07-22T09:14:18;8.03;;;2.37;;
6947;SDS011;3513;47.664;9.162;2023-07-22T09:16:45;7.33;;;2.90;;
6947;SDS011;3513;47.664;9.162;2023-07-22T09:19:12;2.77;;;2.47;;
6947;SDS011;3513;47.664;9.162;2023-07-22T09:21:38;5.03;;;2.70;;
6947;SDS011;3513;47.664;9.162;2023-07-22T09:24:23;5.87;;;3.03;;
6947;SDS011;3513;47.664;9.162;2023-07-22T09:26:50;3.93;;;2.90;;
6947;SDS011;3513;47.664;9.162;2023-07-22T09:29:16;6.27;;;3.37;;
6947;SDS011;3513;47.664;9.162;2023-07-22T09:31:54;5.53;;;3.20;;
6947;SDS011;3513;47.664;9.162;2023-07-22T09:34:19;4.00;;;3.00;;
6947;SDS011;3513;47.664;9.162;2023-07-22T09:36:50;6.37;;;3.77;;
6947;SDS011;3513;47.664;9.162;2023-07-22T09:39:15;3.60;;;2.77;;
6947;SDS011;3513;47.664;9.162;2023-07-22T09:41:41;3.83;;;2.87;;
6947;SDS011;3513;47.664;9.162;2023-07-22T09:44:09;6.17;;;3.50;;
6947;SDS011;3513;47.664;9.162;2023-07-22T09:46:35;4.47;;;2.50;;
6947;SDS011;3513;47.664;9.162;2023-07-22T09:49:05;3.13;;;2.83;;
6947;SDS011;3513;47.664;9.162;2023-07-22T09:51:33;2.40;;;2.20;;
6947;SDS011;3513;47.664;9.162;2023-07-22T09:54:01;10.50;;;2.63;;
6947;SDS011;3513;47.664;9.162;2023-07-22T09:56:28;6.07;;;2.60;;
6947;SDS011;3513;47.664;9.162;2023-07-22T09:58:53;10.53;;;2.13;;
6947;SDS011;3513;47.664;9.162;2023-07-22T10:01:20;5.70;;;2.70;;
6947;SDS011;3513;47.664;9.162;2023-07-22T10:03:50;2.90;;;2.53;;
6947;SDS011;3513;47.664;9.162;2023-07-22T10:06:24;4.70;;;4.00;;
6947;SDS011;3513;47.664;9.162;2023-07-22T10:08:52;3.67;;;2.23;;
6947;SDS011;3513;47.664;9.162;2023-07-22T10:11:20;4.83;;;2.43;;
6947;SDS011;3513;47.664;9.162;2023-07-22T10:13:47;3.90;;;2.70;;
6947;SDS011;3513;47.664;9.162;2023-07-22T10:16:13;2.77;;;2.50;;
6947;SDS011;3513;47.664;9.162;2023-07-22T10:18:41;4.23;;;2.80;;
6947;SDS011;3513;47.664;9.162;2023-07-22T10:21:08;3.40;;;2.77;;
6947;SDS011;3513;47.664;9.162;2023-07-22T10:23:34;5.20;;;2.90;;
6947;SDS011;3513;47.664;9.162;2023-07-22T10:26:01;4.10;;;2.50;;
6947;SDS011;3513;47.664;9.162;2023-07-22T10:28:28;7.77;;;2.40;;
6947;SDS011;3513;47.664;9.162;2023-07-22T10:30:54;2.90;;;2.37;;
6947;SDS011;3513;47.664;9.162;2023-07-22T10:33:22;6.60;;;3.27;;
6947;SDS011;3513;47.664;9.162;2023-07-22T10:36:02;5.10;;;2.90;;
6947;SDS011;3513;47.664;9.162;2023-07-22T10:38:32;6.40;;;2.67;;
6947;SDS011;3513;47.664;9.162;2023-07-22T10:40:58;4.10;;;2.73;;
6947;SDS011;3513;47.664;9.162;2023-07-22T10:43:25;8.80;;;3.30;;
6947;SDS011;3513;47.664;9.162;2023-07-22T10:46:10;9.07;;;3.40;;
6947;SDS011;3513;47.664;9.162;2023-07-22T10:48:39;6.30;;;3.07;;
6947;SDS011;3513;47.664;9.162;2023-07-22T10:51:10;3.60;;;2.77;;
6947;SDS011;3513;47.664;9.162;2023-07-22T10:53:40;5.33;;;2.53;;
6947;SDS011;3513;47.664;9.162;2023-07-22T11:06:33;7.97;;;3.80;;
6947;SDS011;3513;47.664;9.162;2023-07-22T11:09:00;7.20;;;2.60;;
6947;SDS011;3513;47.664;9.162;2023-07-22T11:11:35;6.83;;;2.53;;
6947;SDS011;3513;47.664;9.162;2023-07-22T11:14:20;4.57;;;2.80;;
6947;SDS011;3513;47.664;9.162;2023-07-22T11:16:46;4.63;;;2.47;;
6947;SDS011;3513;47.664;9.162;2023-07-22T11:19:16;9.20;;;3.20;;
6947;SDS011;3513;47.664;9.162;2023-07-22T11:21:43;3.93;;;3.07;;
6947;SDS011;3513;47.664;9.162;2023-07-22T11:24:10;7.27;;;3.57;;
6947;SDS011;3513;47.664;9.162;2023-07-22T11:26:35;10.00;;;3.30;;
6947;SDS011;3513;47.664;9.162;2023-07-22T11:29:02;4.47;;;2.90;;
6947;SDS011;3513;47.664;9.162;2023-07-22T11:31:33;6.30;;;2.47;;
6947;SDS011;3513;47.664;9.162;2023-07-22T11:34:01;5.63;;;2.33;;
6947;SDS011;3513;47.664;9.162;2023-07-22T11:36:30;3.97;;;2.60;;
6947;SDS011;3513;47.664;9.162;2023-07-22T11:39:01;5.13;;;2.60;;
6947;SDS011;3513;47.664;9.162;2023-07-22T11:41:33;9.60;;;2.70;;
6947;SDS011;3513;47.664;9.162;2023-07-22T11:44:00;9.23;;;3.37;;
6947;SDS011;3513;47.664;9.162;2023-07-22T11:46:27;5.77;;;2.63;;
6947;SDS011;3513;47.664;9.162;2023-07-22T11:48:54;8.33;;;2.23;;
6947;SDS011;3513;47.664;9.162;2023-07-22T11:51:22;4.67;;;2.70;;
6947;SDS011;3513;47.664;9.162;2023-07-22T11:53:49;6.60;;;3.63;;
6947;SDS011;3513;47.664;9.162;2023-07-22T11:56:20;7.10;;;3.40;;
6947;SDS011;3513;47.664;9.162;2023-07-22T11:58:56;3.63;;;2.90;;
6947;SDS011;3513;47.664;9.162;2023-07-22T12:01:22;5.97;;;2.90;;
6947;SDS011;3513;47.664;9.162;2023-07-22T12:03:48;5.67;;;2.80;;
6947;SDS011;3513;47.664;9.162;2023-07-22T12:06:20;6.93;;;3.23;;
6947;SDS011;3513;47.664;9.162;2023-07-22T12:08:50;2.97;;;2.67;;
6947;SDS011;3513;47.664;9.162;2023-07-22T12:13:43;3.73;;;2.90;;
6947;SDS011;3513;47.664;9.162;2023-07-22T12:16:11;3.33;;;2.60;;
6947;SDS011;3513;47.664;9.162;2023-07-22T12:18:42;5.07;;;3.03;;
6947;SDS011;3513;47.664;9.162;2023-07-22T12:21:11;3.23;;;2.87;;
6947;SDS011;3513;47.664;9.162;2023-07-22T12:23:37;7.03;;;2.77;;
6947;SDS011;3513;47.664;9.162;2023-07-22T12:26:04;5.60;;;2.90;;
6947;SDS011;3513;47.664;9.162;2023-07-22T12:28:30;7.43;;;2.73;;
6947;SDS011;3513;47.664;9.162;2023-07-22T12:30:56;5.00;;;2.70;;
6947;SDS011;3513;47.664;9.162;2023-07-22T12:33:24;9.73;;;2.83;;
6947;SDS011;3513;47.664;9.162;2023-07-22T12:35:51;3.23;;;2.27;;
6947;SDS011;3513;47.664;9.162;2023-07-22T12:38:21;4.60;;;2.90;;
6947;SDS011;3513;47.664;9.162;2023-07-22T12:40:46;5.23;;;3.63;;
6947;SDS011;3513;47.664;9.162;2023-07-22T12:43:12;4.27;;;2.80;;
6947;SDS011;3513;47.664;9.162;2023-07-22T12:45:37;4.90;;;3.10;;
6947;SDS011;3513;47.664;9.162;2023-07-22T12:48:03;6.10;;;3.10;;
6947;SDS011;3513;47.664;9.162;2023-07-22T12:50:30;4.53;;;2.87;;
6947;SDS011;3513;47.664;9.162;2023-07-22T12:52:56;6.53;;;3.13;;
6947;SDS011;3513;47.664;9.162;2023-07-22T12:55:22;4.30;;;2.50;;
6947;SDS011;3513;47.664;9.162;2023-07-22T12:57:48;3.97;;;2.67;;
6947;SDS011;3513;47.664;9.162;2023-07-22T13:00:13;10.23;;;2.80;;
6947;SDS011;3513;47.664;9.162;2023-07-22T13:02:39;4.90;;;2.80;;
6947;SDS011;3513;47.664;9.162;2023-07-22T13:05:05;5.00;;;2.90;;
6947;SDS011;3513;47.664;9.162;2023-07-22T13:07:31;6.90;;;2.70;;
6947;SDS011;3513;47.664;9.162;2023-07-22T13:09:57;4.10;;;2.90;;
6947;SDS011;3513;47.664;9.162;2023-07-22T13:12:25;5.70;;;2.60;;
6947;SDS011;3513;47.664;9.162;2023-07-22T13:14:51;6.80;;;2.90;;
6947;SDS011;3513;47.664;9.162;2023-07-22T13:17:16;4.03;;;2.70;;
6947;SDS011;3513;47.664;9.162;2023-07-22T13:19:42;8.67;;;3.40;;
6947;SDS011;3513;47.664;9.162;2023-07-22T13:22:07;23.40;;;4.47;;
6947;SDS011;3513;47.664;9.162;2023-07-22T13:24:33;3.00;;;2.70;;
6947;SDS011;3513;47.664;9.162;2023-07-22T13:26:59;8.83;;;3.40;;
6947;SDS011;3513;47.664;9.162;2023-07-22T13:29:24;4.97;;;3.63;;
6947;SDS011;3513;47.664;9.162;2023-07-22T13:31:50;6.53;;;3.50;;
6947;SDS011;3513;47.664;9.162;2023-07-22T13:34:15;4.90;;;3.10;;
6947;SDS011;3513;47.664;9.162;2023-07-22T13:36:41;3.73;;;2.77;;
6947;SDS011;3513;47.664;9.162;2023-07-22T13:39:06;4.57;;;3.50;;
6947;SDS011;3513;47.664;9.162;2023-07-22T13:41:32;5.13;;;3.70;;
6947;SDS011;3513;47.664;9.162;2023-07-22T13:43:57;3.90;;;3.60;;
6947;SDS011;3513;47.664;9.162;2023-07-22T13:46:23;4.50;;;3.10;;
6947;SDS011;3513;47.664;9.162;2023-07-22T13:48:48;6.03;;;3.43;;
6947;SDS011;3513;47.664;9.162;2023-07-22T13:51:14;7.60;;;2.97;;
6947;SDS011;3513;47.664;9.162;2023-07-22T13:53:39;7.87;;;4.07;;
6947;SDS011;3513;47.664;9.162;2023-07-22T13:56:05;5.23;;;3.67;;
6947;SDS011;3513;47.664;9.162;2023-07-22T13:58:30;3.03;;;2.50;;
6947;SDS011;3513;47.664;9.162;2023-07-22T14:00:56;7.17;;;3.90;;
6947;SDS011;3513;47.664;9.162;2023-07-22T14:03:22;3.37;;;2.27;;
6947;SDS011;3513;47.664;9.162;2023-07-22T14:05:47;6.40;;;3.27;;
6947;SDS011;3513;47.664;9.162;2023-07-22T14:08:13;4.57;;;2.93;;
6947;SDS011;3513;47.664;9.162;2023-07-22T14:10:39;13.13;;;3.60;;
6947;SDS011;3513;47.664;9.162;2023-07-22T14:13:04;5.87;;;3.90;;
6947;SDS011;3513;47.664;9.162;2023-07-22T14:15:30;3.60;;;3.20;;
6947;SDS011;3513;47.664;9.162;2023-07-22T14:17:56;4.73;;;3.23;;
6947;SDS011;3513;47.664;9.162;2023-07-22T14:20:21;5.23;;;2.80;;
6947;SDS011;3513;47.664;9.162;2023-07-22T14:22:47;4.33;;;3.50;;
6947;SDS011;3513;47.664;9.162;2023-07-22T14:25:15;7.43;;;3.53;;
6947;SDS011;3513;47.664;9.162;2023-07-22T14:27:41;3.60;;;2.73;;
6947;SDS011;3513;47.664;9.162;2023-07-22T14:30:07;3.40;;;2.93;;
6947;SDS011;3513;47.664;9.162;2023-07-22T14:32:33;5.03;;;3.20;;
6947;SDS011;3513;47.664;9.162;2023-07-22T14:34:59;5.30;;;3.13;;
6947;SDS011;3513;47.664;9.162;2023-07-22T14:37:24;5.90;;;3.47;;
6947;SDS011;3513;47.664;9.162;2023-07-22T14:39:50;4.40;;;3.23;;
6947;SDS011;3513;47.664;9.162;2023-07-22T14:42:15;3.57;;;2.63;;
6947;SDS011;3513;47.664;9.162;2023-07-22T14:44:41;3.57;;;2.93;;
6947;SDS011;3513;47.664;9.162;2023-07-22T14:47:07;4.73;;;3.40;;
6947;SDS011;3513;47.664;9.162;2023-07-22T14:49:32;5.13;;;3.60;;
6947;SDS011;3513;47.664;9.162;2023-07-22T14:51:58;5.80;;;3.60;;
6947;SDS011;3513;47.664;9.162;2023-07-22T14:54:23;3.73;;;3.30;;
6947;SDS011;3513;47.664;9.162;2023-07-22T14:56:49;4.30;;;3.10;;
6947;SDS011;3513;47.664;9.162;2023-07-22T14:59:15;10.63;;;2.90;;
6947;SDS011;3513;47.664;9.162;2023-07-22T15:01:41;6.90;;;3.03;;
6947;SDS011;3513;47.664;9.162;2023-07-22T15:04:07;3.83;;;2.70;;
6947;SDS011;3513;47.664;9.162;2023-07-22T15:06:33;5.20;;;3.00;;
6947;SDS011;3513;47.664;9.162;2023-07-22T15:08:58;4.90;;;3.30;;
6947;SDS011;3513;47.664;9.162;2023-07-22T15:11:25;8.23;;;2.83;;
6947;SDS011;3513;47.664;9.162;2023-07-22T15:13:50;4.00;;;3.20;;
6947;SDS011;3513;47.664;9.162;2023-07-22T15:16:16;4.50;;;3.13;;
6947;SDS011;3513;47.664;9.162;2023-07-22T15:18:42;9.43;;;3.67;;
6947;SDS011;3513;47.664;9.162;2023-07-22T15:21:08;2.90;;;2.60;;
6947;SDS011;3513;47.664;9.162;2023-07-22T15:23:33;4.90;;;3.47;;
6947;SDS011;3513;47.664;9.162;2023-07-22T15:25:59;4.17;;;3.40;;